Time;durP1;ratioP1;P1;durP2;ratioP2;P2;SDS_P1;SDS_P2;PMS_P1;PMS_P2;Temp;Humidity;BMP_temperature;BMP_pressure;BME280_temperature;BME280_humidity;BME280_pressure;Samples;Min_cycle;Max_cycle;Signal;HPM_P1;HPM_P2
2022/05/03 00:01:34;;;;;;;;;;;;;;;;;;5137013;27;20312;-72
2022/05/03 00:04:06;;;;;;;8.83;7.13;;;;;;;;;;5136077;27;20347;-72
2022/05/03 00:06:45;;;;;;;10.53;7.70;;;;;;;;;;5136404;27;20347;-72
2022/05/03 00:09:14;;;;;;;9.87;6.70;;;;;;;;;;5136032;27;20338;-72
2022/05/03 00:11:45;;;;;;;14.87;7.30;;;;;;;;;;5134845;27;20693;-72
2022/05/03 00:14:23;;;;;;;9.47;7.00;;;;;;;;;;5135859;27;20321;-72
2022/05/03 00:16:50;;;;;;;11.23;7.40;;;;;;;;;;5136277;27;20321;-72
2022/05/03 00:19:16;;;;;;;10.70;7.13;;;;;;;;;;5135984;27;20288;-72
2022/05/03 00:21:43;;;;;;;10.77;7.63;;;;;;;;;;5136049;27;20764;-72
2022/05/03 00:24:09;;;;;;;9.75;7.55;;;;;;;;;;5135670;27;20287;-72
2022/05/03 00:26:35;;;;;;;9.93;7.67;;;;;;;;;;5134779;27;20624;-72
2022/05/03 00:29:02;;;;;;;11.13;7.63;;;;;;;;;;5135595;27;20320;-72
2022/05/03 00:31:28;;;;;;;11.48;7.85;;;;;;;;;;5135815;27;20622;-72
2022/05/03 00:33:55;;;;;;;9.65;8.30;;;;;;;;;;5135561;27;20364;-72
2022/05/03 00:36:22;;;;;;;9.25;8.00;;;;;;;;;;5136072;27;20047;-72
2022/05/03 00:38:48;;;;;;;11.70;8.90;;;;;;;;;;5134745;27;20047;-72
2022/05/03 00:41:23;;;;;;;11.93;9.07;;;;;;;;;;5135380;27;20321;-72
2022/05/03 00:43:58;;;;;;;12.07;8.68;;;;;;;;;;5134695;27;20297;-72
2022/05/03 00:46:28;;;;;;;10.60;8.60;;;;;;;;;;5135585;27;20039;-72
2022/05/03 00:49:19;;;;;;;10.77;7.97;;;;;;;;;;5135071;27;20768;-74
2022/05/03 00:51:53;;;;;;;8.93;7.50;;;;;;;;;;5135178;27;20525;-71
2022/05/03 00:54:26;;;;;;;9.13;7.75;;;;;;;;;;5134313;27;20112;-72
2022/05/03 00:57:10;;;;;;;10.65;7.75;;;;;;;;;;5135397;27;20467;-72
2022/05/03 00:59:55;;;;;;;10.45;8.18;;;;;;;;;;5135452;27;20047;-72
2022/05/03 01:02:29;;;;;;;9.82;8.35;;;;;;;;;;5135349;27;20083;-72
2022/05/03 01:04:55;;;;;;;11.98;8.45;;;;;;;;;;5135528;27;20093;-74
2022/05/03 01:07:42;;;;;;;10.27;8.27;;;;;;;;;;5134093;27;20055;-72
2022/05/03 01:10:12;;;;;;;10.63;8.75;;;;;;;;;;5134739;27;20035;-72
2022/05/03 01:12:56;;;;;;;9.73;8.07;;;;;;;;;;5135197;27;20068;-72
2022/05/03 01:15:27;;;;;;;12.95;8.80;;;;;;;;;;5134094;27;20432;-72
2022/05/03 01:17:53;;;;;;;12.65;8.43;;;;;;;;;;5135186;27;20089;-72
2022/05/03 01:20:30;;;;;;;11.23;8.02;;;;;;;;;;5134592;27;20039;-72
2022/05/03 01:23:15;;;;;;;9.77;8.38;;;;;;;;;;5134478;27;20055;-72
2022/05/03 01:25:50;;;;;;;10.55;9.10;;;;;;;;;;5134843;27;20043;-72
2022/05/03 01:28:29;;;;;;;10.00;8.63;;;;;;;;;;5134300;27;20047;-72
2022/05/03 01:30:58;;;;;;;10.02;8.38;;;;;;;;;;5134797;27;20151;-72
2022/05/03 01:33:31;;;;;;;9.52;8.30;;;;;;;;;;5134590;27;20050;-72
2022/05/03 01:35:59;;;;;;;12.73;8.45;;;;;;;;;;5134581;27;20052;-72
2022/05/03 01:38:38;;;;;;;10.45;8.43;;;;;;;;;;5134517;27;20082;-72
2022/05/03 01:41:23;;;;;;;10.35;7.90;;;;;;;;;;5134200;27;20043;-72
2022/05/03 01:43:58;;;;;;;9.88;8.02;;;;;;;;;;5134424;27;20107;-72
2022/05/03 01:46:25;;;;;;;8.50;7.57;;;;;;;;;;5134205;27;20134;-72
2022/05/03 01:51:57;;;;;;;8.75;7.50;;;;;;;;;;5134188;27;20051;-72
2022/05/03 01:54:42;;;;;;;10.02;7.15;;;;;;;;;;5133983;27;20035;-72
2022/05/03 01:57:15;;;;;;;9.65;7.88;;;;;;;;;;5134004;27;20095;-72
2022/05/03 02:00:00;;;;;;;8.38;7.10;;;;;;;;;;5134479;27;20043;-72
2022/05/03 02:02:30;;;;;;;8.93;6.97;;;;;;;;;;5132791;27;20085;-72
2022/05/03 02:05:01;;;;;;;8.13;6.80;;;;;;;;;;5134271;27;20039;-72
2022/05/03 02:07:45;;;;;;;10.98;6.65;;;;;;;;;;5133871;27;20078;-72
2022/05/03 02:10:18;;;;;;;7.50;5.93;;;;;;;;;;5133784;27;20050;-72
2022/05/03 02:12:52;;;;;;;6.90;6.00;;;8.00;99.90;;;;;;5134060;27;20101;-72
2022/05/03 02:15:25;;;;;;;8.02;6.22;;;7.90;99.90;;;;;;5133744;27;20454;-72
2022/05/03 02:18:05;;;;;;;7.40;5.78;;;7.80;99.90;;;;;;5133090;27;20096;-72
2022/05/03 02:20:52;;;;;;;7.03;5.82;;;7.90;99.90;;;;;;5134272;27;20050;-72
2022/05/03 02:23:17;;;;;;;6.75;5.53;;;7.80;99.90;;;;;;5133728;27;20055;-72
2022/05/03 02:25:52;;;;;;;7.03;5.67;;;7.70;99.90;;;;;;5134171;27;20134;-72
2022/05/03 02:28:23;;;;;;;6.50;5.72;;;7.80;99.90;;;;;;5133535;28;20051;-72
2022/05/03 02:30:51;;;;;;;7.88;6.05;;;7.70;99.90;;;;;;5133972;27;20388;-72
2022/05/03 02:33:28;;;;;;;8.02;6.10;;;7.70;99.90;;;;;;5132302;27;20039;-72
2022/05/03 02:35:56;;;;;;;7.43;6.38;;;7.70;99.90;;;;;;5136487;27;20484;-72
2022/05/03 02:38:31;;;;;;;7.72;6.22;;;7.80;99.90;;;;;;5137775;27;20046;-72
2022/05/03 02:41:00;;;;;;;7.70;6.63;;;7.90;99.90;;;;;;5137690;27;20494;-72
2022/05/03 02:43:27;;;;;;;9.30;6.65;;;7.90;99.90;;;;;;5137653;27;20595;-72
2022/05/03 02:46:04;;;;;;;9.05;6.50;;;8.00;99.90;;;;;;5137950;27;20051;-72
2022/05/03 02:48:40;;;;;;;8.30;7.28;;;8.00;99.90;;;;;;5137639;27;20047;-72
2022/05/03 02:51:07;;;;;;;8.20;7.30;;;8.10;99.90;;;;;;5137592;27;20188;-71
2022/05/03 02:53:55;;;;;;;8.15;7.18;;;8.10;99.90;;;;;;5136970;27;20081;-72
2022/05/03 02:56:25;;;;;;;9.45;6.75;;;8.10;99.90;;;;;;5137506;27;20053;-72
2022/05/03 02:59:20;;;;;;;9.32;7.60;;;8.20;99.90;;;;;;5137868;27;20469;-72
2022/05/03 03:02:13;;;;;;;9.13;8.18;;;8.20;99.90;;;;;;5137720;27;20054;-72
2022/05/03 03:04:44;;;;;;;9.65;8.23;;;8.20;99.90;;;;;;5137575;27;20043;-72
2022/05/03 03:07:17;;;;;;;10.70;8.05;;;8.20;99.90;;;;;;5137240;27;20039;-73
2022/05/03 03:10:03;;;;;;;11.38;8.63;;;8.20;99.90;;;;;;5137507;27;20050;-72
2022/05/03 03:12:45;;;;;;;10.52;9.15;;;8.30;99.90;;;;;;5137138;27;20047;-72
2022/05/03 03:15:15;;;;;;;10.70;8.73;;;8.30;99.90;;;;;;5137151;27;20043;-72
2022/05/03 03:17:44;;;;;;;12.88;9.57;;;8.30;99.90;;;;;;5137463;27;20379;-72
2022/05/03 03:20:10;;;;;;;10.38;9.27;;;8.30;99.90;;;;;;5137243;27;20126;-73
2022/05/03 03:22:37;;;;;;;10.15;8.65;;;8.40;99.90;;;;;;5137216;27;20047;-72
2022/05/03 03:25:04;;;;;;;9.98;8.95;;;8.40;99.90;;;;;;5136418;27;20104;-72
2022/05/03 03:27:31;;;;;;;11.98;9.48;;;8.40;99.90;;;;;;5136845;27;20530;-72
2022/05/03 03:29:58;;;;;;;14.80;9.20;;;8.50;99.90;;;;;;5136990;27;20051;-72
2022/05/03 03:32:26;;;;;;;10.75;9.65;;;8.50;99.90;;;;;;5118866;27;20080;-72
2022/05/03 03:34:57;;;;;;;11.95;9.90;;;8.50;99.90;;;;;;5136951;27;20047;-72
2022/05/03 03:37:36;;;;;;;10.10;9.07;;;8.50;99.90;;;;;;5136600;27;20047;-72
2022/05/03 03:40:05;;;;;;;10.77;9.60;;;8.50;99.90;;;;;;5137070;27;20055;-72
2022/05/03 03:42:31;;;;;;;11.05;9.95;;;8.50;99.90;;;;;;5136379;27;20054;-72
2022/05/03 03:45:02;;;;;;;12.27;10.43;;;8.50;99.90;;;;;;5136322;27;20111;-72
2022/05/03 03:47:30;;;;;;;11.40;9.45;;;8.50;99.90;;;;;;5135239;27;20051;-72
2022/05/03 03:49:57;;;;;;;11.70;10.02;;;8.60;99.90;;;;;;5136729;27;20051;-72
2022/05/03 03:52:25;;;;;;;13.48;10.23;;;8.60;99.90;;;;;;5136280;27;20058;-72
2022/05/03 03:54:52;;;;;;;11.20;9.90;;;8.60;99.90;;;;;;5136579;27;20051;-72
2022/05/03 03:57:20;;;;;;;12.23;10.93;;;8.60;99.90;;;;;;5135081;27;20040;-72
2022/05/03 03:59:46;;;;;;;12.23;10.93;;;8.60;99.90;;;;;;5135652;27;20324;-72
2022/05/03 04:02:12;;;;;;;14.57;11.40;;;8.70;99.90;;;;;;5136456;27;20283;-72
2022/05/03 04:04:38;;;;;;;12.33;10.80;;;8.70;99.90;;;;;;5136109;27;20039;-72
2022/05/03 04:07:05;;;;;;;12.45;11.10;;;;;;;;;;5136342;27;20391;-72
2022/05/03 04:09:31;;;;;;;11.80;10.40;;;;;;;;;;5135967;27;20126;-72
2022/05/03 04:11:59;;;;;;;14.63;11.40;;;8.80;99.90;;;;;;5136192;27;20043;-72
2022/05/03 04:14:24;;;;;;;12.70;11.25;;;8.80;99.90;;;;;;5134993;27;20050;-72
2022/05/03 04:16:50;;;;;;;12.27;10.97;;;8.80;99.90;;;;;;5136438;27;20039;-72
2022/05/03 04:19:16;;;;;;;12.97;11.50;;;8.80;99.90;;;;;;5152449;27;20162;-74
2022/05/03 04:21:41;;;;;;;13.47;11.10;;;8.80;99.90;;;;;;5136133;27;20479;-72
2022/05/03 04:24:07;;;;;;;16.87;11.70;;;8.90;99.90;;;;;;5135955;27;20165;-72
2022/05/03 04:26:33;;;;;;;12.70;10.95;;;8.80;99.90;;;;;;5135734;27;20122;-72
2022/05/03 04:29:01;;;;;;;13.33;11.83;;;8.90;99.90;;;;;;5135951;27;20519;-72
2022/05/03 04:31:27;;;;;;;15.53;11.27;;;8.90;99.90;;;;;;5134336;27;20062;-72
2022/05/03 04:33:54;;;;;;;12.82;11.52;;;8.90;99.90;;;;;;5134948;27;20300;-72
2022/05/03 04:36:21;;;;;;;12.57;11.23;;;8.90;99.90;;;;;;5135199;27;20483;-72
2022/05/03 04:38:47;;;;;;;13.23;11.38;;;8.90;99.90;;;;;;5135876;27;20047;-72
2022/05/03 04:41:13;;;;;;;15.13;11.93;;;8.90;99.90;;;;;;5135737;27;20090;-72
2022/05/03 04:43:39;;;;;;;13.30;11.90;;;8.90;99.90;;;;;;5135424;27;20082;-72
2022/05/03 04:46:04;;;;;;;13.87;12.43;;;9.00;99.90;;;;;;5134588;27;20043;-72
2022/05/03 04:48:30;;;;;;;16.77;12.83;;;9.00;99.90;;;;;;5135301;27;20039;-72
2022/05/03 04:50:56;;;;;;;13.97;12.40;;;9.00;99.90;;;;;;5135405;27;20040;-72
2022/05/03 04:53:22;;;;;;;13.57;11.93;;;9.00;99.90;;;;;;5168389;27;20102;-73
2022/05/03 04:55:48;;;;;;;15.73;13.90;;;9.10;99.90;;;;;;5134482;27;20139;-72
2022/05/03 04:58:14;;;;;;;15.17;12.70;;;9.10;99.90;;;;;;5134488;27;20050;-72
2022/05/03 05:00:40;;;;;;;14.53;12.90;;;9.10;99.90;;;;;;5134021;27;20320;-72
2022/05/03 05:03:06;;;;;;;16.38;13.93;;;9.10;99.90;;;;;;5135237;27;20290;-72
2022/05/03 05:05:32;;;;;;;15.27;13.57;;;9.10;99.90;;;;;;5168337;27;20046;-72
2022/05/03 05:08:04;;;;;;;15.27;13.57;;;9.10;99.90;;;;;;5134903;27;20047;-72
2022/05/03 05:10:31;;;;;;;15.80;14.13;;;9.20;99.90;;;;;;5133746;27;20039;-72
2022/05/03 05:12:58;;;;;;;16.10;14.40;;;9.20;99.90;;;;;;5133725;27;20289;-72
2022/05/03 05:15:24;;;;;;;16.25;13.32;;;9.20;99.90;;;;;;5134649;27;20277;-73
2022/05/03 05:17:51;;;;;;;16.47;14.10;;;9.20;99.90;;;;;;5134913;27;20051;-72
2022/05/03 05:20:17;;;;;;;16.47;14.30;;;9.30;99.90;;;;;;5117002;27;20346;-72
2022/05/03 05:22:43;;;;;;;19.60;14.27;;;9.30;99.90;;;;;;5134520;27;20300;-72
2022/05/03 05:25:09;;;;;;;15.73;13.63;;;9.30;99.90;;;;;;5133844;27;20610;-72
2022/05/03 05:27:36;;;;;;;17.17;14.63;;;9.40;99.90;;;;;;5134444;27;20342;-72
2022/05/03 05:30:06;;;;;;;17.70;14.97;;;9.40;99.90;;;;;;5135091;27;20318;-72
2022/05/03 05:32:33;;;;;;;18.07;15.73;;;9.50;99.90;;;;;;5134403;27;20272;-72
2022/05/03 05:34:58;;;;;;;17.73;15.20;;;9.50;99.90;;;;;;5133716;27;20284;-72
2022/05/03 05:37:24;;;;;;;17.63;15.13;;;9.50;99.90;;;;;;5134402;27;20289;-74
2022/05/03 05:39:50;;;;;;;18.00;16.10;;;9.50;99.90;;;;;;5133715;27;20415;-72
2022/05/03 05:42:16;;;;;;;19.23;16.57;;;9.60;99.90;;;;;;5134548;27;20387;-72
2022/05/03 05:44:41;;;;;;;19.43;17.33;;;9.60;99.90;;;;;;5134201;27;20054;-72
2022/05/03 05:47:07;;;;;;;21.30;16.57;;;9.70;99.90;;;;;;5133399;27;20043;-72
2022/05/03 05:49:33;;;;;;;18.90;16.90;;;9.70;99.90;;;;;;5134290;27;20043;-71
2022/05/03 05:54:45;;;;;;;19.17;17.17;;;9.70;99.90;;;;;;5111994;27;20434;-70
2022/05/03 05:57:11;;;;;;;20.80;17.77;;;9.70;99.90;;;;;;5134251;27;20368;-70
2022/05/03 05:59:37;;;;;;;27.27;17.93;;;9.80;99.90;;;;;;5133897;27;20043;-70
2022/05/03 06:02:03;;;;;;;19.40;17.07;;;9.80;99.90;;;;;;5132892;27;20289;-71
2022/05/03 06:04:28;;;;;;;24.33;19.10;;;9.80;99.90;;;;;;5133996;27;20122;-72
2022/05/03 06:06:55;;;;;;;22.77;18.80;;;9.90;99.90;;;;;;5134159;27;20787;-71
2022/05/03 06:09:21;;;;;;;21.17;18.40;;;9.90;99.90;;;;;;5133944;27;20047;-71
2022/05/03 06:11:46;;;;;;;19.73;17.17;;;9.90;99.90;;;;;;5133714;27;20289;-71
2022/05/03 06:14:12;;;;;;;21.90;17.63;;;10.00;99.90;;;;;;5133680;27;20047;-69
2022/05/03 06:16:54;;;;;;;21.07;18.17;;;10.00;99.90;;;;;;5133413;27;20125;-70
2022/05/03 06:19:20;;;;;;;21.83;18.77;;;10.00;99.90;;;;;;5134145;27;20082;-69
2022/05/03 06:21:46;;;;;;;21.43;17.40;;;;;;;;;;5133301;27;20707;-69
2022/05/03 06:24:13;;;;;;;20.87;17.87;;;;;;;;;;5132412;27;20356;-69
2022/05/03 06:26:39;;;;;;;23.43;18.47;;;;;;;;;;5115408;28;20284;-69
2022/05/03 06:29:06;;;;;;;24.30;17.67;;;;;;;;;;5133925;28;20284;-69
2022/05/03 06:31:33;;;;;;;22.20;18.30;;;10.10;99.90;;;;;;5133803;27;20336;-69
2022/05/03 06:34:01;;;;;;;22.83;19.37;;;10.10;99.90;;;;;;5133995;27;20281;-69
2022/05/03 06:36:26;;;;;;;33.03;18.23;;;10.10;99.90;;;;;;5115798;28;20608;-69
2022/05/03 06:38:52;;;;;;;27.53;17.83;;;10.10;99.90;;;;;;5133323;27;20284;-69
2022/05/03 06:41:18;;;;;;;25.23;15.97;;;10.10;99.90;;;;;;5133989;27;20078;-68
2022/05/03 06:43:43;;;;;;;21.50;14.60;;;10.10;99.90;;;;;;5133608;28;20043;-69
2022/05/03 06:46:10;;;;;;;21.23;12.83;;;10.10;99.90;;;;;;5133845;28;20043;-68
2022/05/03 06:48:35;;;;;;;21.53;10.50;;;10.10;99.90;;;;;;5133660;27;20054;-68
2022/05/03 06:51:01;;;;;;;22.60;8.93;;;10.10;99.90;;;;;;5167455;27;20308;-68
2022/05/03 06:53:27;;;;;;;16.97;7.80;;;10.10;99.90;;;;;;5133953;28;20517;-68
2022/05/03 06:55:53;;;;;;;17.77;7.33;;;10.00;99.90;;;;;;5133541;28;20089;-68
2022/05/03 06:58:18;;;;;;;17.70;7.53;;;10.00;99.90;;;;;;5133922;27;20043;-68
2022/05/03 07:00:44;;;;;;;19.93;7.23;;;10.10;99.90;;;;;;5133491;27;20066;-68
2022/05/03 07:03:10;;;;;;;15.37;6.63;;;10.00;99.90;;;;;;5133712;28;20100;-68
2022/05/03 07:05:36;;;;;;;19.93;7.67;;;10.00;99.90;;;;;;5133804;28;20378;-68
2022/05/03 07:08:01;;;;;;;18.93;6.93;;;10.00;99.90;;;;;;5133733;28;20086;-67
2022/05/03 07:10:27;;;;;;;19.90;7.57;;;10.00;99.90;;;;;;5132548;28;20043;-67
2022/05/03 07:12:53;;;;;;;18.80;7.00;;;9.90;99.90;;;;;;5133500;28;20058;-67
2022/05/03 07:15:18;;;;;;;19.10;6.60;;;9.90;99.90;;;;;;5133813;28;20134;-67
2022/05/03 07:23:15;;;;;;;20.13;6.17;;;9.90;99.90;;;;;;5137745;27;20069;-67
2022/05/03 07:25:41;;;;;;;21.93;6.90;;;9.80;99.90;;;;;;5137203;27;20283;-67
2022/05/03 07:28:07;;;;;;;25.40;6.60;;;9.90;99.90;;;;;;5137277;27;20321;-67
2022/05/03 07:30:34;;;;;;;22.83;6.97;;;9.90;99.90;;;;;;5137223;27;20289;-68
2022/05/03 07:33:00;;;;;;;21.73;7.20;;;10.00;99.90;;;;;;5137175;27;20281;-68
2022/05/03 07:35:26;;;;;;;22.73;7.33;;;10.00;99.90;;;;;;5137129;27;20621;-68
2022/05/03 07:37:52;;;;;;;23.50;6.67;;;10.20;99.90;;;;;;5136995;27;20079;-68
2022/05/03 07:40:17;;;;;;;19.80;6.70;;;10.20;99.90;;;;;;5137099;27;20398;-68
2022/05/03 07:42:44;;;;;;;23.37;6.00;;;10.30;99.90;;;;;;5135832;27;20475;-69
2022/05/03 07:45:10;;;;;;;20.63;6.97;;;10.30;99.90;;;;;;5135844;27;20043;-68
2022/05/03 07:47:37;;;;;;;21.83;7.70;;;10.40;99.90;;;;;;5137097;27;20341;-68
2022/05/03 07:50:04;;;;;;;22.03;5.67;;;10.40;99.90;;;;;;5136778;27;20355;-68
2022/05/03 07:52:30;;;;;;;23.10;5.93;;;10.40;99.90;;;;;;5136846;27;20324;-68
2022/05/03 07:54:56;;;;;;;24.37;6.93;;;10.40;99.90;;;;;;5136648;27;20316;-69
2022/05/03 07:57:23;;;;;;;18.40;6.37;;;10.40;99.90;;;;;;5136895;27;20121;-68
2022/05/03 07:59:50;;;;;;;16.47;5.30;;;10.50;99.90;;;;;;5136522;27;20810;-68
2022/05/03 08:02:16;;;;;;;20.37;5.23;;;10.50;99.90;;;;;;5136335;27;20776;-68
2022/05/03 08:04:41;;;;;;;26.70;6.13;;;10.50;99.90;;;;;;5136418;27;20302;-69
2022/05/03 08:07:07;;;;;;;19.03;5.83;;;10.50;99.90;;;;;;5136612;27;20054;-69
2022/05/03 08:09:36;;;;;;;22.63;5.17;;;10.40;99.90;;;;;;5136529;27;20082;-69
2022/05/03 08:12:03;;;;;;;16.97;5.00;;;10.50;99.90;;;;;;5136207;27;20051;-69
2022/05/03 08:14:29;;;;;;;22.10;6.00;;;10.50;99.90;;;;;;5136396;27;20277;-69
2022/05/03 08:16:55;;;;;;;19.90;5.83;;;10.50;99.90;;;;;;5136148;27;20279;-69
2022/05/03 08:19:22;;;;;;;21.30;4.90;;;10.50;99.90;;;;;;5136048;27;20502;-69
2022/05/03 08:21:48;;;;;;;24.97;5.60;;;10.60;99.90;;;;;;5134960;27;20371;-69
2022/05/03 08:24:14;;;;;;;25.30;5.73;;;10.60;99.90;;;;;;5136554;27;20280;-69
2022/05/03 08:26:40;;;;;;;26.07;5.33;;;10.60;99.90;;;;;;5136225;27;20318;-69
2022/05/03 08:29:06;;;;;;;20.27;5.20;;;10.70;99.90;;;;;;5136512;27;20100;-69
2022/05/03 08:31:31;;;;;;;29.67;5.77;;;10.70;99.90;;;;;;5136216;27;20046;-69
2022/05/03 08:34:01;;;;;;;16.93;4.00;;;10.70;99.90;;;;;;5135856;27;20051;-69
2022/05/03 08:36:28;;;;;;;20.50;4.97;;;10.70;99.90;;;;;;5136042;27;20078;-69
2022/05/03 08:42:21;;;;;;;23.63;6.53;;;10.70;99.90;;;;;;5136141;27;20277;-69
2022/05/03 08:44:31;;;;;;;24.50;5.50;;;10.80;99.90;;;;;;5127349;27;20771;-69
2022/05/03 08:46:59;;;;;;;22.90;5.37;;;10.80;99.90;;;;;;5135311;27;20783;-69
2022/05/03 08:49:37;;;;;;;17.57;4.67;;;10.80;99.90;;;;;;5135822;27;20329;-69
2022/05/03 08:52:03;;;;;;;18.90;4.40;;;10.80;99.90;;;;;;5135427;27;20301;-69
2022/05/03 08:54:31;;;;;;;17.73;3.60;;;10.80;99.90;;;;;;5134669;27;20648;-69
2022/05/03 08:56:57;;;;;;;17.37;4.30;;;10.90;99.90;;;;;;5134432;27;20337;-69
2022/05/03 08:59:24;;;;;;;16.93;3.90;;;10.90;99.90;;;;;;5135524;27;20371;-69
2022/05/03 09:01:50;;;;;;;13.77;3.93;;;10.80;99.90;;;;;;5135327;27;20386;-69
2022/05/03 09:04:15;;;;;;;15.37;4.43;;;10.90;99.90;;;;;;5135382;27;20380;-69
2022/05/03 09:06:46;;;;;;;14.53;3.63;;;10.90;99.90;;;;;;5135455;27;20047;-68
2022/05/03 09:09:14;;;;;;;14.73;3.50;;;11.00;99.90;;;;;;5135340;27;20482;-68
2022/05/03 09:11:51;;;;;;;14.53;4.07;;;11.00;99.90;;;;;;5135152;27;20297;-68
2022/05/03 09:14:39;;;;;;;15.57;4.27;;;11.10;99.90;;;;;;5134348;27;20289;-69
2022/05/03 09:17:05;;;;;;;17.87;4.23;;;11.10;99.90;;;;;;5135035;27;20385;-68
2022/05/03 09:19:32;;;;;;;10.93;3.47;;;11.20;99.90;;;;;;5135183;27;20313;-69
2022/05/03 09:24:52;;;;;;;15.65;3.35;;;11.30;99.90;;;;;;5135096;27;20356;-68
2022/05/03 09:27:18;;;;;;;15.07;4.17;;;;;;;;;;5135243;27;20051;-69
2022/05/03 09:30:03;;;;;;;19.63;8.03;;;11.70;99.90;;;;;;5135202;27;20441;-69
2022/05/03 09:32:37;;;;;;;20.17;6.63;;;11.70;99.90;;;;;;5135036;27;20340;-69
2022/05/03 09:35:04;;;;;;;15.20;5.78;;;11.80;99.90;;;;;;5134589;27;20287;-69
2022/05/03 09:37:42;;;;;;;12.63;3.40;;;11.80;99.90;;;;;;5133695;27;20045;-69
2022/05/03 09:40:10;;;;;;;14.97;4.50;;;;;;;;;;5134487;27;20292;-69
2022/05/03 09:42:36;;;;;;;14.67;4.63;;;12.00;99.90;;;;;;5134502;27;20353;-69
2022/05/03 09:45:05;;;;;;;9.70;3.00;;;12.00;99.90;;;;;;5134378;27;20285;-69
2022/05/03 09:47:46;;;;;;;15.33;4.33;;;12.00;99.90;;;;;;5134634;27;20359;-69
2022/05/03 09:50:23;;;;;;;11.67;3.17;;;12.00;99.90;;;;;;5134311;27;20741;-69
2022/05/03 09:52:50;;;;;;;11.50;2.90;;;12.00;99.90;;;;;;5134468;27;20335;-69
2022/05/03 09:55:33;;;;;;;12.13;3.57;;;12.00;99.90;;;;;;5134365;27;20314;-69
2022/05/03 09:58:06;;;;;;;12.27;3.70;;;12.00;99.90;;;;;;5134383;27;20277;-69
2022/05/03 10:00:34;;;;;;;14.17;3.10;;;12.00;99.90;;;;;;5116664;27;20288;-69
2022/05/03 10:03:01;;;;;;;12.37;3.33;;;12.00;99.90;;;;;;5134252;27;20285;-69
2022/05/03 10:05:27;;;;;;;15.70;3.73;;;12.00;99.90;;;;;;5134343;27;20315;-68
2022/05/03 10:07:53;;;;;;;11.57;3.00;;;12.10;99.90;;;;;;5134128;27;20284;-69
2022/05/03 10:10:21;;;;;;;12.73;3.77;;;12.10;99.90;;;;;;5134160;27;20280;-69
2022/05/03 10:12:49;;;;;;;14.27;3.23;;;12.10;99.60;;;;;;5133459;27;20284;-69
2022/05/03 10:21:09;;;;;;;8.83;2.33;;;12.10;98.70;;;;;;5133943;27;20306;-69
2022/05/03 10:23:35;;;;;;;10.83;2.70;;;12.10;99.70;;;;;;5134127;27;20273;-68
2022/05/03 10:26:07;;;;;;;9.80;2.97;;;12.10;99.60;;;;;;5133937;27;20285;-69
2022/05/03 10:29:01;;;;;;;9.93;2.47;;;12.10;99.40;;;;;;5134068;27;20365;-68
2022/05/03 10:31:26;;;;;;;11.70;3.10;;;12.10;99.50;;;;;;5133969;28;20383;-69
2022/05/03 10:33:52;;;;;;;9.13;2.40;;;12.10;99.70;;;;;;5132866;28;20363;-69
2022/05/03 10:36:30;;;;;;;10.73;3.37;;;12.20;99.10;;;;;;5134067;28;20076;-69
2022/05/03 10:39:05;;;;;;;13.63;3.37;;;12.30;97.30;;;;;;5134052;28;20055;-69
2022/05/03 10:41:31;;;;;;;8.48;3.22;;;12.30;99.30;;;;;;5134366;27;20273;-69
2022/05/03 10:43:57;;;;;;;12.87;3.50;;;12.40;99.90;;;;;;5133832;27;20035;-69
2022/05/03 10:46:23;;;;;;;12.60;3.23;;;12.50;98.50;;;;;;5133829;28;20475;-69
2022/05/03 10:49:15;;;;;;;8.27;2.87;;;12.60;95.90;;;;;;5133859;27;20285;-68
2022/05/03 10:51:42;;;;;;;9.40;2.83;;;12.60;95.90;;;;;;5133662;27;20300;-69
2022/05/03 10:54:08;;;;;;;11.10;2.57;;;12.60;97.10;;;;;;5133331;27;20780;-69
2022/05/03 10:56:34;;;;;;;12.07;2.90;;;12.70;98.20;;;;;;5137234;27;20285;-69
2022/05/03 10:59:12;;;;;;;13.07;2.70;;;12.80;96.30;;;;;;5137691;27;20463;-69
2022/05/03 11:01:56;;;;;;;7.50;2.73;;;12.90;94.60;;;;;;5137141;27;20047;-68
2022/05/03 11:04:23;;;;;;;9.87;2.13;;;13.00;92.50;;;;;;5137721;27;20288;-69
2022/05/03 11:06:49;;;;;;;7.93;2.30;;;13.00;92.00;;;;;;5137781;27;20375;-69
2022/05/03 11:09:28;;;;;;;12.33;2.77;;;13.10;91.40;;;;;;5137207;27;20367;-69
2022/05/03 11:11:57;;;;;;;10.37;2.53;;;13.00;88.00;;;;;;5137581;27;20035;-69
2022/05/03 11:14:24;;;;;;;12.07;2.60;;;13.10;90.90;;;;;;5137581;27;20289;-69
2022/05/03 11:17:04;;;;;;;9.40;3.60;;;13.20;92.00;;;;;;5136873;27;20690;-69
2022/05/03 11:19:31;;;;;;;9.10;2.37;;;13.40;89.30;;;;;;5136245;27;20649;-69
2022/05/03 11:21:58;;;;;;;10.43;2.50;;;13.40;86.70;;;;;;5137383;27;20836;-68
2022/05/03 11:24:29;;;;;;;12.10;3.17;;;13.40;89.10;;;;;;5136438;27;20285;-69
2022/05/03 11:27:02;;;;;;;11.27;2.30;;;13.60;90.70;;;;;;5136184;27;20293;-69
2022/05/03 11:29:34;;;;;;;11.70;3.17;;;13.70;83.90;;;;;;5137359;27;20291;-69
2022/05/03 11:32:01;;;;;;;10.60;2.60;;;13.60;82.90;;;;;;5135998;27;20315;-70
2022/05/03 11:34:28;;;;;;;9.50;2.10;;;13.50;82.30;;;;;;5137552;27;20276;-69
2022/05/03 11:36:54;;;;;;;10.03;2.30;;;13.50;83.10;;;;;;5137168;27;20323;-69
2022/05/03 11:39:21;;;;;;;8.97;2.43;;;13.50;83.30;;;;;;5136848;27;20316;-69
2022/05/03 11:41:47;;;;;;;12.87;2.53;;;13.60;81.60;;;;;;5137073;27;20085;-69
2022/05/03 11:44:14;;;;;;;12.80;2.50;;;13.70;82.20;;;;;;5136868;27;20277;-69
2022/05/03 11:46:42;;;;;;;8.37;2.23;;;13.70;82.40;;;;;;5137103;27;20276;-69
2022/05/03 11:49:09;;;;;;;10.60;2.30;;;13.70;76.40;;;;;;5135780;27;20624;-69
2022/05/03 11:57:24;;;;;;;8.23;1.98;;;13.50;81.10;;;;;;5136659;27;20148;-69
2022/05/03 11:59:56;;;;;;;10.05;2.38;;;13.80;78.90;;;;;;5135698;27;20360;-69
2022/05/03 12:02:32;;;;;;;10.23;2.40;;;13.60;77.20;;;;;;5136542;27;20391;-69
2022/05/03 12:05:16;;;;;;;8.13;2.37;;;13.70;80.90;;;;;;5136657;27;20307;-68
2022/05/03 12:07:55;;;;;;;7.33;2.10;;;13.70;77.20;;;;;;5136304;27;20367;-69
2022/05/03 12:10:25;;;;;;;9.53;2.13;;;13.70;76.80;;;;;;5135228;27;20344;-69
2022/05/03 12:13:12;;;;;;;8.40;2.30;;;13.70;77.10;;;;;;5136630;27;20318;-69
2022/05/03 12:15:46;;;;;;;10.57;2.33;;;13.70;78.70;;;;;;5136351;27;20415;-69
2022/05/03 12:18:17;;;;;;;7.32;1.88;;;13.50;77.60;;;;;;5136236;27;20756;-69
2022/05/03 12:20:55;;;;;;;8.47;2.33;;;13.70;79.20;;;;;;5136337;27;20396;-69
2022/05/03 12:23:32;;;;;;;8.13;2.17;;;13.80;78.40;;;;;;5135159;27;20299;-69
2022/05/03 12:26:00;;;;;;;8.63;2.23;;;13.80;75.10;;;;;;5136093;27;20764;-69
2022/05/03 12:28:42;;;;;;;9.17;2.30;;;13.70;75.50;;;;;;5135987;27;20421;-69
2022/05/03 12:31:09;;;;;;;7.57;2.33;;;13.70;74.40;;;;;;5135844;27;20297;-69
2022/05/03 12:34:07;;;;;;;9.20;2.33;;;13.70;75.10;;;;;;5136421;27;20366;-69
2022/05/03 12:36:41;;;;;;;9.00;2.00;;;13.70;73.90;;;;;;5119400;27;20297;-69
2022/05/03 12:39:30;;;;;;;11.30;2.40;;;13.80;75.20;;;;;;5135892;27;20624;-69
2022/05/03 12:42:01;;;;;;;8.23;2.00;;;13.90;73.90;;;;;;5169926;27;20055;-69
2022/05/03 12:44:28;;;;;;;8.17;2.27;;;13.90;71.40;;;;;;5135537;27;20885;-69
2022/05/03 12:47:06;;;;;;;14.23;2.77;;;13.80;72.70;;;;;;5135867;27;20336;-69
2022/05/03 12:49:33;;;;;;;11.03;2.23;;;13.80;72.00;;;;;;5135754;27;20637;-69
2022/05/03 12:51:59;;;;;;;8.27;2.20;;;13.80;73.20;;;;;;5135384;27;20680;-69
2022/05/03 12:54:25;;;;;;;10.30;2.70;;;13.70;73.00;;;;;;5134291;27;20281;-69
2022/05/03 12:59:35;;;;;;;12.07;2.33;;;13.60;71.20;;;;;;5135601;27;20069;-68
2022/05/03 13:02:01;;;;;;;6.90;1.90;;;13.60;73.40;;;;;;5135703;27;20276;-68
2022/05/03 13:04:31;;;;;;;9.47;2.07;;;13.60;72.60;;;;;;5135261;27;20043;-69
2022/05/03 13:06:58;;;;;;;10.20;2.50;;;13.70;71.70;;;;;;5135233;27;20768;-69
2022/05/03 13:09:25;;;;;;;11.10;2.17;;;13.80;70.70;;;;;;5135209;27;20283;-69
2022/05/03 13:11:52;;;;;;;12.97;2.10;;;13.70;69.90;;;;;;5134379;27;20309;-69
2022/05/03 13:14:18;;;;;;;7.60;2.10;;;13.60;69.70;;;;;;5134012;27;20273;-69
2022/05/03 13:16:45;;;;;;;8.93;2.30;;;13.50;69.90;;;;;;5134063;27;20284;-69
2022/05/03 13:19:12;;;;;;;8.83;1.90;;;13.30;69.40;;;;;;5134287;27;20277;-69
2022/05/03 13:21:41;;;;;;;12.37;2.57;;;13.30;71.30;;;;;;5135429;27;20650;-69
2022/05/03 13:24:07;;;;;;;8.00;2.50;;;13.40;72.90;;;;;;5135414;27;20364;-69
2022/05/03 13:26:35;;;;;;;10.70;2.53;;;13.50;71.50;;;;;;5134891;27;20273;-69
2022/05/03 13:29:03;;;;;;;12.07;2.63;;;13.50;68.90;;;;;;5135027;27;20276;-69
2022/05/03 13:31:29;;;;;;;8.97;3.00;;;13.50;70.10;;;;;;5134663;27;20342;-69
2022/05/03 13:33:56;;;;;;;12.47;2.87;;;13.60;69.90;;;;;;5134834;27;20331;-69
2022/05/03 13:41:50;;;;;;;12.67;2.63;;;13.90;69.00;;;;;;5135022;27;20300;-69
2022/05/03 13:44:16;;;;;;;8.60;1.97;;;13.80;67.80;;;;;;5134508;27;20740;-69
2022/05/03 13:46:42;;;;;;;8.60;2.27;;;13.80;66.60;;;;;;5133815;27;20123;-69
2022/05/03 13:49:07;;;;;;;11.30;2.70;;;13.80;67.40;;;;;;5134652;27;20425;-69
2022/05/03 13:51:33;;;;;;;11.50;2.87;;;13.70;67.70;;;;;;5134225;27;20058;-68